Flight Track Log - Related Links

Times and Time Zones

All times are in EDT time to prevent confusion due to time zone crossing. See the N654DL flight status page for this flight to view local times or setup timezone preferences in your user account.

Time Position Orientation Groundspeed Altitude Reporting Facility
EDT Latitude Longitude Course Direction KTS MPH feet Rate Location/Type
Wed 08:25:18 AM 27.3833 -82.5500 360° North 186 214 600  Level Tampa TRACON
Wed 08:25:54 AM 27.3667 -82.5167 119° Southeast 171 197 2,100 1,813 Climbing Tampa TRACON
Wed 08:26:54 AM 27.3167 -82.4833 149° Southeast 256 295 3,500 2,554 Climbing Tampa TRACON
Wed 08:28:00 AM 27.5412 -82.7833 North  Level FlightAware
Wed 08:29:00 AM 27.6464 -82.7833 North  Level FlightAware
Wed 08:29:16 AM 27.2889 -82.5981 255° West 160 184 10,700  Level Miami Center
Wed 08:30:00 AM 27.7515 -82.7833 360° North  Level FlightAware
Wed 08:30:16 AM 27.3569 -82.6714 316° Northwest 239 275 12,200  Level Miami Center
Wed 08:31:16 AM 27.4328 -82.7547 316° Northwest 311 358 14,800 2,413 Climbing Miami Center
Wed 08:33:15 AM 27.6575 -82.7803 354° North 385 443 19,400 2,045 Climbing Jacksonville Center
Wed 08:34:15 AM 27.7722 -82.7822 359° North 402 463 20,900 1,800 Climbing Jacksonville Center
Wed 08:35:15 AM 27.8933 -82.7892 357° North 422 486 23,000 2,000 Climbing Jacksonville Center
Wed 08:36:15 AM 28.0164 -82.7892 360° North 428 493 24,900 1,850 Climbing Jacksonville Center
Wed 08:37:15 AM 28.1417 -82.7889 360° North 434 499 26,700 1,650 Climbing Jacksonville Center
Wed 08:38:15 AM 28.2708 -82.7867 North 445 512 28,200 1,750 Climbing Jacksonville Center
Wed 08:39:15 AM 28.3961 -82.7864 360° North 450 518 30,200 1,900 Climbing Jacksonville Center
Wed 08:40:15 AM 28.5131 -82.8194 346° North 444 511 32,000 900 Climbing Jacksonville Center
Wed 08:41:15 AM 28.6258 -82.8619 342° North 425 489 32,000  Level Jacksonville Center
Wed 08:42:15 AM 28.7425 -82.8878 349° North 420 483 32,000  Level Jacksonville Center
Wed 08:43:15 AM 28.8594 -82.9092 351° North 420 483 32,000  Level Jacksonville Center
Wed 08:44:15 AM 28.9783 -82.9306 351° North 425 489 32,000  Level Jacksonville Center
Wed 08:45:15 AM 29.0892 -82.9758 340° North 425 489 32,000  Level Jacksonville Center
Wed 08:46:15 AM 29.1872 -83.0400 330° Northwest 414 476 32,000  Level Jacksonville Center
Wed 08:47:15 AM 29.2892 -83.1069 330° Northwest 414 476 32,000  Level Jacksonville Center
Wed 08:48:15 AM 29.3914 -83.1714 331° Northwest 414 476 32,000  Level Jacksonville Center
Wed 08:49:15 AM 29.5061 -83.2458 331° Northwest 426 490 32,000  Level Jacksonville Center
Wed 08:50:15 AM 29.5936 -83.3033 330° Northwest 426 490 32,000  Level Jacksonville Center
Wed 08:51:15 AM 29.6978 -83.3708 331° Northwest 426 490 32,000  Level Jacksonville Center
Wed 08:52:15 AM 29.8019 -83.4358 332° Northwest 426 490 32,000  Level Jacksonville Center
Wed 08:53:15 AM 29.9058 -83.5058 330° Northwest 426 490 32,000  Level Jacksonville Center
Wed 08:54:15 AM 30.0203 -83.5786 331° Northwest 426 490 32,000  Level Jacksonville Center
Wed 08:55:15 AM 30.1244 -83.6467 331° Northwest 426 490 32,000  Level Jacksonville Center
Wed 08:56:15 AM 30.2306 -83.7125 332° Northwest 426 490 32,000  Level Jacksonville Center
Wed 08:57:15 AM 30.3344 -83.7806 331° Northwest 426 490 32,000  Level Jacksonville Center
Wed 08:58:15 AM 30.4361 -83.8514 329° Northwest 426 490 32,000  Level Jacksonville Center
Wed 08:59:15 AM 30.5422 -83.9178 332° Northwest 426 490 32,000  Level Jacksonville Center
Wed 09:00:15 AM 30.6314 -83.9789 329° Northwest 426 490 32,000  Level Jacksonville Center
Wed 09:01:15 AM 30.7353 -84.0478 330° Northwest 426 490 32,000  Level Jacksonville Center
Wed 09:02:15 AM 30.8369 -84.1144 331° Northwest 426 490 32,000  Level Jacksonville Center
Wed 09:03:15 AM 30.9386 -84.1836 330° Northwest 426 490 32,000  Level Jacksonville Center
Wed 09:04:15 AM 31.0422 -84.2506 331° Northwest 426 490 32,000  Level Jacksonville Center
Wed 09:05:15 AM 31.1439 -84.3197 330° Northwest 426 490 32,000  Level Jacksonville Center
Wed 09:06:15 AM 31.2453 -84.3869 330° Northwest 421 484 32,000  Level Jacksonville Center
Wed 09:07:15 AM 31.3489 -84.4567 330° Northwest 426 490 32,000  Level Jacksonville Center
Wed 09:09:41 AM 31.5969 -84.6217 330° Northwest 426 490 32,000  Level Atlanta Center
Wed 09:10:41 AM 31.7033 -84.6711 338° Northwest 412 474 32,000  Level Atlanta Center
Wed 09:11:41 AM 31.8200 -84.7183 341° North 422 486 32,000  Level Atlanta Center
Wed 09:12:41 AM 31.9386 -84.7533 346° North 428 493 32,000  Level Atlanta Center
Wed 09:13:41 AM 32.0678 -84.7814 350° North 433 498 32,000  Level Atlanta Center
Wed 09:14:41 AM 32.1908 -84.8094 349° North 433 498 32,000  Level Atlanta Center
Wed 09:15:41 AM 32.2847 -84.8275 351° North 433 498 32,000 -350 Level Atlanta Center
Wed 09:16:41 AM 32.4181 -84.8558 350° North 433 498 31,300 -1,650 Descending Atlanta Center
Wed 09:17:41 AM 32.5389 -84.8792 351° North 428 493 28,700 -3,050 Descending Atlanta Center
Wed 09:18:41 AM 32.6683 -84.9097 349° North 448 516 25,200 -3,050 Descending Atlanta Center
Wed 09:19:41 AM 32.8100 -84.9483 347° North 464 534 22,600 -2,900 Descending Atlanta Center
Wed 09:20:41 AM 32.9328 -84.9744 350° North 464 534 19,400 -3,100 Descending Atlanta Center
Wed 09:21:41 AM 33.0494 -85.0003 349° North 433 498 16,400 -2,650 Descending Atlanta Center
Wed 09:22:41 AM 33.1664 -85.0167 353° North 428 493 14,100 -1,500 Descending Atlanta Center
Wed 09:23:41 AM 33.2608 -84.9331 37° Northeast 400 460 13,400 -850 Descending Atlanta Center
Wed 09:24:41 AM 33.3389 -84.8244 49° Northeast 400 460 12,400 -771 Descending Atlanta Center
Wed 09:25:30 AM 33.4000 -84.7333 51° Northeast 413 475 12,000 -209 Descending Atlanta TRACON
Wed 09:26:36 AM 33.4833 -84.6333 45° Northeast 348 400 12,000 -97 Level Atlanta TRACON
Wed 09:28:36 AM 33.5500 -84.4667 64° Northeast 274 315 11,700 -733 Descending Atlanta TRACON
Wed 09:29:36 AM 33.5500 -84.3833 90° East 258 297 9,800 -1,700 Descending Atlanta TRACON
Wed 09:30:36 AM 33.5500 -84.3000 90° East 226 260 8,300 -1,737 Descending Atlanta TRACON
Wed 09:31:30 AM 33.5500 -84.2333 90° East 229 264 6,500 -1,632 Descending Atlanta TRACON
Wed 09:32:30 AM 33.5500 -84.1667 90° East 224 258 5,200 -1,250 Descending Atlanta TRACON
Wed 09:33:30 AM 33.6167 -84.1667 360° North 203 234 4,000 -600 Descending Atlanta TRACON
Wed 09:34:30 AM 33.6167 -84.2167 270° West 158 182 4,000 -200 Level Atlanta TRACON
Wed 09:35:30 AM 33.6167 -84.2667 270° West 157 181 3,600 -650 Descending Atlanta TRACON
Wed 09:36:30 AM 33.6167 -84.3167 270° West 161 185 2,700 -900 Descending Atlanta TRACON

Login

Don't have an account? Register now (free) for customized features, flight alerts, and more!